createdAt,value
2022-11-30T00:00:07.700Z,8.04
2022-11-30T00:00:28.765Z,8.04
2022-11-30T00:00:49.846Z,8.03
2022-11-30T00:01:10.894Z,8.04
2022-11-30T00:01:31.959Z,8.04
2022-11-30T00:01:53.068Z,8.04
2022-11-30T00:02:14.260Z,8.04
2022-11-30T00:02:35.530Z,8.03
2022-11-30T00:02:56.657Z,8.03
2022-11-30T00:03:17.913Z,8.03
2022-11-30T00:03:39.022Z,8.03
2022-11-30T00:04:00.110Z,8.03
2022-11-30T00:04:21.177Z,8.03
2022-11-30T00:04:42.285Z,8.03
2022-11-30T00:05:03.318Z,8.02
2022-11-30T00:05:24.385Z,8.03
2022-11-30T00:05:45.485Z,8.03
2022-11-30T00:06:06.535Z,8.02
2022-11-30T00:06:27.621Z,8.02
2022-11-30T00:06:48.655Z,8.03
2022-11-30T00:07:09.729Z,8.03
2022-11-30T00:07:30.847Z,8.03
2022-11-30T00:07:51.932Z,8.03
2022-11-30T00:08:13.062Z,8.03
2022-11-30T00:08:34.135Z,8.03
2022-11-30T00:08:55.205Z,8.03
2022-11-30T00:09:16.411Z,8.02
2022-11-30T00:09:37.480Z,8.02
2022-11-30T00:09:58.519Z,8.03
2022-11-30T00:10:19.596Z,8.03
2022-11-30T00:10:40.637Z,8.03
2022-11-30T00:11:01.702Z,8.03
2022-11-30T00:11:22.764Z,8.02
2022-11-30T00:11:43.854Z,8.03
2022-11-30T00:12:04.895Z,8.03
2022-11-30T00:12:25.960Z,8.03
2022-11-30T00:12:47.025Z,8.03
2022-11-30T00:13:08.094Z,8.03
2022-11-30T00:13:29.140Z,8.03
2022-11-30T00:13:50.204Z,8.03
2022-11-30T00:14:11.293Z,8.03
2022-11-30T00:14:32.357Z,8.03
2022-11-30T00:14:53.428Z,8.03
2022-11-30T00:15:14.483Z,8.03
2022-11-30T00:15:35.548Z,8.04
2022-11-30T00:15:56.602Z,8.03
2022-11-30T00:16:17.744Z,8.03
2022-11-30T00:16:38.876Z,8.04
2022-11-30T00:16:59.922Z,8.03
2022-11-30T00:17:20.970Z,8.03
2022-11-30T00:17:42.142Z,8.04
2022-11-30T00:18:03.161Z,8.03
2022-11-30T00:18:24.242Z,8.03
2022-11-30T00:18:45.304Z,8.04
2022-11-30T00:19:06.368Z,8.03
2022-11-30T00:19:27.431Z,8.04
2022-11-30T00:19:48.500Z,8.04
2022-11-30T00:20:09.565Z,8.04
2022-11-30T00:20:30.623Z,8.04
2022-11-30T00:20:51.705Z,8.04
2022-11-30T00:21:12.766Z,8.04
2022-11-30T00:21:33.821Z,8.03
2022-11-30T00:21:54.886Z,8.04
2022-11-30T00:22:15.948Z,8.03
2022-11-30T00:22:37.009Z,8.04
2022-11-30T00:22:58.129Z,8.04
2022-11-30T00:23:19.144Z,8.04
2022-11-30T00:23:40.340Z,8.03
2022-11-30T00:24:01.398Z,8.03
2022-11-30T00:24:22.460Z,8.04
2022-11-30T00:24:43.644Z,8.04
2022-11-30T00:25:04.743Z,8.03
2022-11-30T00:25:25.804Z,8.04
2022-11-30T00:25:46.854Z,8.03
2022-11-30T00:26:07.906Z,8.03
2022-11-30T00:26:28.954Z,8.03
2022-11-30T00:26:50.011Z,8.03
2022-11-30T00:27:11.085Z,8.04
2022-11-30T00:27:32.136Z,8.03
2022-11-30T00:27:53.195Z,8.03
2022-11-30T00:28:14.272Z,8.03
2022-11-30T00:28:35.308Z,8.02
2022-11-30T00:28:56.393Z,8.02
2022-11-30T00:29:17.447Z,8.02
2022-11-30T00:29:38.568Z,8.02
2022-11-30T00:29:59.605Z,8.02
2022-11-30T00:30:20.650Z,8.03
2022-11-30T00:30:41.795Z,8.03
2022-11-30T00:31:02.968Z,8.02
2022-11-30T00:31:24.075Z,8.03
2022-11-30T00:31:45.125Z,8.02
2022-11-30T00:32:06.177Z,8.01
2022-11-30T00:32:27.244Z,8.02
2022-11-30T00:32:48.356Z,8.01
2022-11-30T00:33:09.416Z,8.01
2022-11-30T00:33:30.508Z,8.01
2022-11-30T00:33:51.578Z,8.00
2022-11-30T00:34:12.647Z,8.00
2022-11-30T00:34:33.702Z,8.01
2022-11-30T00:34:54.766Z,8.00
2022-11-30T00:35:15.842Z,8.00
2022-11-30T00:35:36.871Z,8.00
2022-11-30T00:35:57.939Z,8.00
2022-11-30T00:36:19.009Z,8.00
2022-11-30T00:36:40.063Z,8.00
2022-11-30T00:37:01.118Z,8.00
2022-11-30T00:37:22.194Z,8.00
2022-11-30T00:37:43.267Z,7.99
2022-11-30T00:38:04.322Z,7.98
2022-11-30T00:38:25.385Z,7.98
2022-11-30T00:38:46.454Z,7.98
2022-11-30T00:39:07.520Z,7.99
2022-11-30T00:39:32.411Z,7.98
2022-11-30T00:39:55.663Z,7.99
2022-11-30T00:40:16.723Z,7.98
2022-11-30T00:40:37.792Z,7.97
2022-11-30T00:40:58.845Z,7.97
2022-11-30T00:41:19.916Z,7.97
2022-11-30T00:41:40.971Z,7.97
2022-11-30T00:42:02.022Z,7.96
2022-11-30T00:42:23.090Z,7.96
2022-11-30T00:42:44.168Z,7.96
2022-11-30T00:43:05.218Z,7.96
2022-11-30T00:43:26.299Z,7.96
2022-11-30T00:43:47.345Z,7.96
2022-11-30T00:44:08.406Z,7.96
2022-11-30T00:44:29.592Z,7.96
2022-11-30T00:44:50.632Z,7.96
2022-11-30T00:45:11.709Z,7.96
2022-11-30T00:45:32.772Z,7.96
2022-11-30T00:45:53.855Z,7.95
2022-11-30T00:46:15.017Z,7.95
2022-11-30T00:46:36.156Z,7.95
2022-11-30T00:46:57.194Z,7.95
2022-11-30T00:47:18.265Z,7.94
2022-11-30T00:47:39.332Z,7.94
2022-11-30T00:48:00.398Z,7.94
2022-11-30T00:48:21.459Z,7.94
2022-11-30T00:48:42.631Z,7.94
2022-11-30T00:49:03.696Z,7.94
2022-11-30T00:49:24.744Z,7.93
2022-11-30T00:49:45.813Z,7.93
2022-11-30T00:50:06.872Z,7.93
2022-11-30T00:50:27.935Z,7.94
2022-11-30T00:50:48.995Z,7.93
2022-11-30T00:51:10.060Z,7.93
2022-11-30T00:51:31.130Z,7.92
2022-11-30T00:51:52.195Z,7.93
2022-11-30T00:52:13.249Z,7.93
2022-11-30T00:52:34.328Z,7.93
2022-11-30T00:52:55.406Z,7.93
2022-11-30T00:53:16.479Z,7.92
2022-11-30T00:53:37.545Z,7.92
2022-11-30T00:53:58.620Z,7.93
2022-11-30T00:54:19.704Z,7.92
2022-11-30T00:54:40.765Z,7.92
2022-11-30T00:55:04.194Z,7.91
2022-11-30T00:55:25.544Z,7.91
2022-11-30T00:55:46.609Z,7.92
2022-11-30T00:56:07.708Z,7.92
2022-11-30T00:56:28.729Z,7.91
2022-11-30T00:56:49.799Z,7.91
2022-11-30T00:57:10.865Z,7.91
2022-11-30T00:57:31.917Z,7.92
2022-11-30T00:57:52.980Z,7.92
2022-11-30T00:58:14.087Z,7.91
2022-11-30T00:58:35.174Z,7.92
2022-11-30T00:58:56.223Z,7.92
2022-11-30T00:59:17.397Z,7.91
2022-11-30T00:59:38.453Z,7.92
2022-11-30T00:59:59.525Z,7.91
2022-11-30T01:00:20.577Z,7.91
2022-11-30T01:00:41.656Z,7.91
2022-11-30T01:01:02.789Z,7.91
2022-11-30T01:01:23.920Z,7.91
2022-11-30T01:01:45.034Z,7.92
2022-11-30T01:02:06.134Z,7.92
2022-11-30T01:02:27.249Z,7.91
2022-11-30T01:02:48.311Z,7.91
2022-11-30T01:03:09.383Z,7.91
2022-11-30T01:03:30.475Z,7.90
2022-11-30T01:03:51.518Z,7.91
2022-11-30T01:04:12.571Z,7.91
2022-11-30T01:04:33.750Z,7.91
2022-11-30T01:04:54.809Z,7.90
2022-11-30T01:05:15.867Z,7.91
2022-11-30T01:05:36.964Z,7.91
2022-11-30T01:05:58.009Z,7.90
2022-11-30T01:06:19.062Z,7.90
2022-11-30T01:06:40.150Z,7.89
2022-11-30T01:07:01.183Z,7.89
2022-11-30T01:07:22.246Z,7.88
2022-11-30T01:07:43.441Z,7.89
2022-11-30T01:08:04.492Z,7.89
2022-11-30T01:08:25.551Z,7.88
2022-11-30T01:08:46.611Z,7.89
2022-11-30T01:09:07.686Z,7.88
2022-11-30T01:09:28.733Z,7.88
2022-11-30T01:09:49.819Z,7.88
2022-11-30T01:10:10.880Z,7.88
2022-11-30T01:10:31.938Z,7.88
2022-11-30T01:10:52.983Z,7.87
2022-11-30T01:11:14.070Z,7.88
2022-11-30T01:11:35.118Z,7.87
2022-11-30T01:11:56.180Z,7.87
2022-11-30T01:12:17.257Z,7.87
2022-11-30T01:12:38.321Z,7.87
2022-11-30T01:12:59.395Z,7.86
2022-11-30T01:13:20.452Z,7.87
2022-11-30T01:13:41.531Z,7.86
2022-11-30T01:14:02.586Z,7.86
2022-11-30T01:14:23.662Z,7.86
2022-11-30T01:14:45.103Z,7.86
2022-11-30T01:15:06.320Z,7.86
2022-11-30T01:15:27.382Z,7.85
2022-11-30T01:15:48.497Z,7.86
2022-11-30T01:16:09.608Z,7.85
2022-11-30T01:16:30.642Z,7.86
2022-11-30T01:16:56.060Z,7.86
2022-11-30T01:17:17.306Z,7.85
2022-11-30T01:17:38.380Z,7.85
2022-11-30T01:17:59.440Z,7.85
2022-11-30T01:18:20.516Z,7.85
2022-11-30T01:18:41.588Z,7.84
2022-11-30T01:19:02.647Z,7.83
2022-11-30T01:19:23.721Z,7.84
2022-11-30T01:19:44.778Z,7.84
2022-11-30T01:20:05.845Z,7.84
2022-11-30T01:20:26.927Z,7.84
2022-11-30T01:20:47.969Z,7.83
2022-11-30T01:21:09.035Z,7.83
2022-11-30T01:21:30.093Z,7.83
2022-11-30T01:21:51.159Z,7.84
2022-11-30T01:22:12.232Z,7.83
2022-11-30T01:22:33.297Z,7.83
2022-11-30T01:22:54.391Z,7.82
2022-11-30T01:23:15.463Z,7.82
2022-11-30T01:23:36.519Z,7.83
2022-11-30T01:23:57.596Z,7.82
2022-11-30T01:24:18.664Z,7.82
2022-11-30T01:24:39.730Z,7.83
2022-11-30T01:25:00.801Z,7.82
2022-11-30T01:25:21.869Z,7.82
2022-11-30T01:25:42.935Z,7.82
2022-11-30T01:26:04.019Z,7.82
2022-11-30T01:26:25.060Z,7.82
2022-11-30T01:26:46.142Z,7.81
2022-11-30T01:27:07.228Z,7.82
2022-11-30T01:27:28.287Z,7.81
2022-11-30T01:27:49.338Z,7.82
2022-11-30T01:28:10.413Z,7.81
2022-11-30T01:28:31.474Z,7.81
2022-11-30T01:28:52.576Z,7.81
2022-11-30T01:29:13.595Z,7.81
2022-11-30T01:29:34.675Z,7.81
2022-11-30T01:29:55.756Z,7.80
2022-11-30T01:30:16.838Z,7.81
2022-11-30T01:30:37.966Z,7.81
2022-11-30T01:30:59.108Z,7.80
2022-11-30T01:31:20.226Z,7.81
2022-11-30T01:31:41.264Z,7.80
2022-11-30T01:32:02.430Z,7.81
2022-11-30T01:32:23.509Z,7.80
2022-11-30T01:32:44.566Z,7.80
2022-11-30T01:33:05.624Z,7.80
2022-11-30T01:33:26.681Z,7.80
2022-11-30T01:33:47.747Z,7.80
2022-11-30T01:34:08.827Z,7.79
2022-11-30T01:34:29.882Z,7.80
2022-11-30T01:34:50.936Z,7.79
2022-11-30T01:35:11.995Z,7.79
2022-11-30T01:35:33.087Z,7.80
2022-11-30T01:35:54.161Z,7.80
2022-11-30T01:36:15.245Z,7.79
2022-11-30T01:36:36.319Z,7.79
2022-11-30T01:36:57.369Z,7.79
2022-11-30T01:37:18.424Z,7.79
2022-11-30T01:37:39.496Z,7.79
2022-11-30T01:38:00.564Z,7.79
2022-11-30T01:38:21.627Z,7.79
2022-11-30T01:38:42.685Z,7.79
2022-11-30T01:39:03.765Z,7.78
2022-11-30T01:39:24.829Z,7.79
2022-11-30T01:39:45.905Z,7.79
2022-11-30T01:40:06.972Z,7.79
2022-11-30T01:40:28.035Z,7.78
2022-11-30T01:40:49.097Z,7.78
2022-11-30T01:41:10.149Z,7.78
2022-11-30T01:41:31.205Z,7.78
2022-11-30T01:41:52.486Z,7.78
2022-11-30T01:42:13.535Z,7.78
2022-11-30T01:42:34.676Z,7.78
2022-11-30T01:42:55.715Z,7.78
2022-11-30T01:43:16.782Z,7.78
2022-11-30T01:43:37.861Z,7.77
2022-11-30T01:43:59.067Z,7.78
2022-11-30T01:44:20.484Z,7.77
2022-11-30T01:44:41.576Z,7.76
2022-11-30T01:45:02.630Z,7.78
2022-11-30T01:45:23.680Z,7.77
2022-11-30T01:45:44.814Z,7.77
2022-11-30T01:46:06.022Z,7.77
2022-11-30T01:46:27.122Z,7.76
2022-11-30T01:46:48.152Z,7.76
2022-11-30T01:47:09.213Z,7.76
2022-11-30T01:47:30.278Z,7.77
2022-11-30T01:47:51.356Z,7.77
2022-11-30T01:48:12.408Z,7.76
2022-11-30T01:48:33.504Z,7.76
2022-11-30T01:48:54.541Z,7.76
2022-11-30T01:49:15.624Z,7.76
2022-11-30T01:49:36.704Z,7.76
2022-11-30T01:49:57.812Z,7.75
2022-11-30T01:50:18.868Z,7.76
2022-11-30T01:50:39.936Z,7.75
2022-11-30T01:51:01.029Z,7.75
2022-11-30T01:51:22.065Z,7.75
2022-11-30T01:51:43.130Z,7.76
2022-11-30T01:52:04.197Z,7.75
2022-11-30T01:52:25.274Z,7.75
2022-11-30T01:52:46.351Z,7.75
2022-11-30T01:53:07.389Z,7.74
2022-11-30T01:53:28.453Z,7.74
2022-11-30T01:53:49.527Z,7.74
2022-11-30T01:54:10.590Z,7.74
2022-11-30T01:54:31.667Z,7.74
2022-11-30T01:54:52.724Z,7.74
2022-11-30T01:55:13.824Z,7.73
2022-11-30T01:55:34.893Z,7.74
2022-11-30T01:55:55.962Z,7.74
2022-11-30T01:56:17.018Z,7.73
2022-11-30T01:56:38.085Z,7.73
2022-11-30T01:56:59.143Z,7.73
2022-11-30T01:57:20.229Z,7.73
2022-11-30T01:57:41.289Z,7.73
2022-11-30T01:58:02.348Z,7.74
2022-11-30T01:58:23.407Z,7.72
2022-11-30T01:58:44.493Z,7.73
2022-11-30T01:59:05.567Z,7.73
2022-11-30T01:59:26.714Z,7.72
2022-11-30T01:59:47.775Z,7.72
2022-11-30T02:00:08.842Z,7.73
2022-11-30T02:00:29.985Z,7.72
2022-11-30T02:00:51.035Z,7.72
2022-11-30T02:01:12.142Z,7.72
2022-11-30T02:01:33.240Z,7.72
2022-11-30T02:01:54.317Z,7.72
2022-11-30T02:02:15.400Z,7.71
2022-11-30T02:02:36.535Z,7.71
2022-11-30T02:02:57.646Z,7.72
2022-11-30T02:03:18.741Z,7.71
2022-11-30T02:03:39.808Z,7.71
2022-11-30T02:04:00.853Z,7.70
2022-11-30T02:04:21.943Z,7.70
2022-11-30T02:04:43.004Z,7.70
2022-11-30T02:05:04.091Z,7.70
2022-11-30T02:05:25.143Z,7.70
2022-11-30T02:05:46.200Z,7.70
2022-11-30T02:06:07.258Z,7.69
2022-11-30T02:06:28.315Z,7.69
2022-11-30T02:06:49.375Z,7.69
2022-11-30T02:07:10.491Z,7.70
2022-11-30T02:07:31.672Z,7.69
2022-11-30T02:07:52.937Z,7.69
2022-11-30T02:08:14.219Z,7.68
2022-11-30T02:08:35.459Z,7.69
2022-11-30T02:08:56.516Z,7.69
2022-11-30T02:09:17.580Z,7.69
2022-11-30T02:09:38.663Z,7.69
2022-11-30T02:09:59.711Z,7.69
2022-11-30T02:10:20.806Z,7.69
2022-11-30T02:10:41.910Z,7.69
2022-11-30T02:11:02.949Z,7.68
2022-11-30T02:11:23.998Z,7.68
2022-11-30T02:11:45.056Z,7.69
2022-11-30T02:12:06.114Z,7.68
2022-11-30T02:12:27.174Z,7.69
2022-11-30T02:12:48.259Z,7.69
2022-11-30T02:13:09.321Z,7.69
2022-11-30T02:13:30.382Z,7.69
2022-11-30T02:13:51.457Z,7.69
2022-11-30T02:14:12.565Z,7.69
2022-11-30T02:14:33.714Z,7.69
2022-11-30T02:14:54.779Z,7.69
2022-11-30T02:15:15.825Z,7.69
2022-11-30T02:15:36.978Z,7.69
2022-11-30T02:15:58.205Z,7.69
2022-11-30T02:16:19.593Z,7.69
2022-11-30T02:16:40.840Z,7.69
2022-11-30T02:17:02.079Z,7.69
2022-11-30T02:17:23.216Z,7.69
2022-11-30T02:17:44.275Z,7.69
2022-11-30T02:18:05.311Z,7.70
2022-11-30T02:18:26.374Z,7.69
2022-11-30T02:18:47.439Z,7.69
2022-11-30T02:19:08.500Z,7.69
2022-11-30T02:19:29.576Z,7.69
2022-11-30T02:19:50.640Z,7.70
2022-11-30T02:20:11.723Z,7.69
2022-11-30T02:20:32.800Z,7.69
2022-11-30T02:20:53.886Z,7.70
2022-11-30T02:21:14.987Z,7.69
2022-11-30T02:21:36.035Z,7.70
2022-11-30T02:21:57.087Z,7.69
2022-11-30T02:22:18.155Z,7.69
2022-11-30T02:22:39.206Z,7.70
2022-11-30T02:23:00.258Z,7.70
2022-11-30T02:23:21.353Z,7.70
2022-11-30T02:23:42.830Z,7.70
2022-11-30T02:24:04.458Z,7.69
2022-11-30T02:24:25.546Z,7.70
2022-11-30T02:24:46.841Z,7.69
2022-11-30T02:25:08.047Z,7.69
2022-11-30T02:25:29.116Z,7.69
2022-11-30T02:25:50.158Z,7.69
2022-11-30T02:26:11.215Z,7.69
2022-11-30T02:26:32.337Z,7.69
2022-11-30T02:26:53.508Z,7.69
2022-11-30T02:27:14.561Z,7.69
2022-11-30T02:27:35.619Z,7.69
2022-11-30T02:27:56.687Z,7.69
2022-11-30T02:28:17.766Z,7.68
2022-11-30T02:28:38.845Z,7.68
2022-11-30T02:28:59.915Z,7.68
2022-11-30T02:29:21.107Z,7.68
2022-11-30T02:29:42.174Z,7.69
2022-11-30T02:30:03.244Z,7.68
2022-11-30T02:30:24.302Z,7.69
2022-11-30T02:30:45.419Z,7.69
2022-11-30T02:31:06.713Z,7.69
2022-11-30T02:31:27.816Z,7.69
2022-11-30T02:31:48.872Z,7.68
2022-11-30T02:32:09.928Z,7.69
2022-11-30T02:32:30.975Z,7.69
2022-11-30T02:32:52.037Z,7.69
2022-11-30T02:33:13.096Z,7.69
2022-11-30T02:33:34.158Z,7.69
2022-11-30T02:33:55.237Z,7.69
2022-11-30T02:34:16.284Z,7.69
2022-11-30T02:34:37.389Z,7.69
2022-11-30T02:34:58.455Z,7.68
2022-11-30T02:35:19.516Z,7.69
2022-11-30T02:35:40.570Z,7.69
2022-11-30T02:36:01.619Z,7.69
2022-11-30T02:36:22.910Z,7.69
2022-11-30T02:36:43.974Z,7.70
2022-11-30T02:37:05.024Z,7.70
2022-11-30T02:37:26.097Z,7.69
2022-11-30T02:37:47.148Z,7.68
2022-11-30T02:38:08.209Z,7.69
2022-11-30T02:38:29.272Z,7.68
2022-11-30T02:38:50.337Z,7.69
2022-11-30T02:39:11.399Z,7.69
2022-11-30T02:39:32.454Z,7.69
2022-11-30T02:39:53.523Z,7.68
2022-11-30T02:40:14.721Z,7.69
2022-11-30T02:40:35.793Z,7.69
2022-11-30T02:40:56.832Z,7.69
2022-11-30T02:41:18.115Z,7.69
2022-11-30T02:41:39.180Z,7.69
2022-11-30T02:42:00.257Z,7.69
2022-11-30T02:42:21.347Z,7.68
2022-11-30T02:42:42.379Z,7.69
2022-11-30T02:43:03.439Z,7.69
2022-11-30T02:43:24.493Z,7.70
2022-11-30T02:43:45.549Z,7.68
2022-11-30T02:44:06.629Z,7.68
2022-11-30T02:44:27.723Z,7.68
2022-11-30T02:44:49.287Z,7.68
2022-11-30T02:45:10.443Z,7.69
2022-11-30T02:45:31.514Z,7.68
2022-11-30T02:45:52.688Z,7.69
2022-11-30T02:46:13.777Z,7.68
2022-11-30T02:46:34.859Z,7.69
2022-11-30T02:46:55.895Z,7.69
2022-11-30T02:47:16.947Z,7.69
2022-11-30T02:47:38.011Z,7.69
2022-11-30T02:47:59.072Z,7.68
2022-11-30T02:48:20.144Z,7.69
2022-11-30T02:48:41.192Z,7.69
2022-11-30T02:49:02.254Z,7.69
2022-11-30T02:49:23.314Z,7.69
2022-11-30T02:49:44.419Z,7.68
2022-11-30T02:50:05.479Z,7.69
2022-11-30T02:50:26.522Z,7.70
2022-11-30T02:50:47.580Z,7.70
2022-11-30T02:51:08.646Z,7.70
2022-11-30T02:51:29.716Z,7.69
2022-11-30T02:51:50.783Z,7.70
2022-11-30T02:52:11.868Z,7.70
2022-11-30T02:52:32.928Z,7.70
2022-11-30T02:52:53.998Z,7.70
2022-11-30T02:53:15.039Z,7.69
2022-11-30T02:53:36.100Z,7.69
2022-11-30T02:53:57.168Z,7.70
2022-11-30T02:54:18.259Z,7.70
2022-11-30T02:54:39.302Z,7.70
2022-11-30T02:55:00.368Z,7.70
2022-11-30T02:55:21.461Z,7.70
2022-11-30T02:55:42.484Z,7.71
2022-11-30T02:56:03.664Z,7.71
2022-11-30T02:56:24.728Z,7.70
2022-11-30T02:56:45.848Z,7.70
2022-11-30T02:57:06.993Z,7.70
2022-11-30T02:57:28.050Z,7.70
2022-11-30T02:57:49.116Z,7.70
2022-11-30T02:58:10.195Z,7.70
2022-11-30T02:58:31.244Z,7.70
2022-11-30T02:58:52.308Z,7.70
2022-11-30T02:59:13.359Z,7.70
2022-11-30T02:59:34.439Z,7.70
2022-11-30T02:59:55.468Z,7.70
2022-11-30T03:00:16.539Z,7.70
2022-11-30T03:00:37.622Z,7.70
2022-11-30T03:00:58.662Z,7.71
2022-11-30T03:01:19.742Z,7.71
2022-11-30T03:01:40.807Z,7.71
2022-11-30T03:02:01.899Z,7.72
2022-11-30T03:02:23.081Z,7.71
2022-11-30T03:02:44.181Z,7.71
2022-11-30T03:03:05.347Z,7.72
2022-11-30T03:03:26.389Z,7.72
2022-11-30T03:03:47.488Z,7.71
2022-11-30T03:04:08.543Z,7.72
2022-11-30T03:04:29.646Z,7.72
2022-11-30T03:04:50.691Z,7.72
2022-11-30T03:05:11.749Z,7.71
2022-11-30T03:05:32.815Z,7.72
2022-11-30T03:05:53.866Z,7.72
2022-11-30T03:06:14.933Z,7.73
2022-11-30T03:06:35.990Z,7.72
2022-11-30T03:06:57.076Z,7.72
2022-11-30T03:07:18.239Z,7.71
2022-11-30T03:07:39.369Z,7.72
2022-11-30T03:08:00.477Z,7.72
2022-11-30T03:08:21.530Z,7.72
2022-11-30T03:08:42.589Z,7.71
2022-11-30T03:09:03.637Z,7.72
2022-11-30T03:09:24.706Z,7.72
2022-11-30T03:09:45.756Z,7.71
2022-11-30T03:10:06.825Z,7.72
2022-11-30T03:10:27.888Z,7.72
2022-11-30T03:10:48.954Z,7.72
2022-11-30T03:11:10.020Z,7.72
2022-11-30T03:11:31.084Z,7.72
2022-11-30T03:11:52.150Z,7.71
2022-11-30T03:12:13.241Z,7.71
2022-11-30T03:12:34.284Z,7.70
2022-11-30T03:12:55.345Z,7.71
2022-11-30T03:13:16.427Z,7.71
2022-11-30T03:13:37.479Z,7.71
2022-11-30T03:13:58.529Z,7.71
2022-11-30T03:14:19.604Z,7.71
2022-11-30T03:14:40.688Z,7.70
2022-11-30T03:15:01.758Z,7.71
2022-11-30T03:15:22.825Z,7.71
2022-11-30T03:15:44.003Z,7.70
2022-11-30T03:16:05.109Z,7.71
2022-11-30T03:16:26.214Z,7.70
2022-11-30T03:16:47.293Z,7.70
2022-11-30T03:17:08.323Z,7.70
2022-11-30T03:17:29.400Z,7.70
2022-11-30T03:17:50.492Z,7.70
2022-11-30T03:18:11.533Z,7.69
2022-11-30T03:18:32.641Z,7.70
2022-11-30T03:18:53.681Z,7.70
2022-11-30T03:19:14.748Z,7.69
2022-11-30T03:19:35.816Z,7.70
2022-11-30T03:19:56.908Z,7.70
2022-11-30T03:20:17.959Z,7.69
2022-11-30T03:20:39.015Z,7.70
2022-11-30T03:21:00.097Z,7.70
2022-11-30T03:21:21.187Z,7.69
2022-11-30T03:21:42.261Z,7.69
2022-11-30T03:22:03.303Z,7.69
2022-11-30T03:22:24.363Z,7.69
2022-11-30T03:22:45.556Z,7.69
2022-11-30T03:23:06.603Z,7.70
2022-11-30T03:23:27.660Z,7.69
2022-11-30T03:23:48.742Z,7.70
2022-11-30T03:24:09.803Z,7.69
2022-11-30T03:24:30.880Z,7.69
2022-11-30T03:24:51.993Z,7.69
2022-11-30T03:25:13.006Z,7.70
2022-11-30T03:25:34.071Z,7.69
2022-11-30T03:25:55.134Z,7.69
2022-11-30T03:26:16.269Z,7.69
2022-11-30T03:26:37.322Z,7.69
2022-11-30T03:26:58.385Z,7.69
2022-11-30T03:27:19.449Z,7.69
2022-11-30T03:27:40.510Z,7.70
2022-11-30T03:28:01.582Z,7.69
2022-11-30T03:28:22.660Z,7.69
2022-11-30T03:28:43.711Z,7.69
2022-11-30T03:29:04.772Z,7.69
2022-11-30T03:29:25.837Z,7.69
2022-11-30T03:29:46.903Z,7.69
2022-11-30T03:30:08.067Z,7.69
2022-11-30T03:30:29.140Z,7.69
2022-11-30T03:30:50.239Z,7.69
2022-11-30T03:31:11.328Z,7.69
2022-11-30T03:31:32.460Z,7.69
2022-11-30T03:31:53.512Z,7.68
2022-11-30T03:32:14.573Z,7.69
2022-11-30T03:32:35.615Z,7.68
2022-11-30T03:32:56.680Z,7.69
2022-11-30T03:33:17.772Z,7.68
2022-11-30T03:33:38.814Z,7.68
2022-11-30T03:33:59.886Z,7.68
2022-11-30T03:34:20.980Z,7.68
2022-11-30T03:34:42.024Z,7.68
2022-11-30T03:35:03.107Z,7.68
2022-11-30T03:35:24.160Z,7.68
2022-11-30T03:35:45.207Z,7.67
2022-11-30T03:36:06.293Z,7.68
2022-11-30T03:36:27.321Z,7.68
2022-11-30T03:36:48.516Z,7.68
2022-11-30T03:37:09.581Z,7.68
2022-11-30T03:37:30.644Z,7.68
2022-11-30T03:37:51.709Z,7.68
2022-11-30T03:38:12.777Z,7.68
2022-11-30T03:38:33.835Z,7.68
2022-11-30T03:38:54.908Z,7.68
2022-11-30T03:39:15.961Z,7.68
2022-11-30T03:39:37.032Z,7.68
2022-11-30T03:39:58.647Z,7.68
2022-11-30T03:40:19.693Z,7.68
2022-11-30T03:40:40.772Z,7.68
2022-11-30T03:41:01.823Z,7.68
2022-11-30T03:41:22.887Z,7.68
2022-11-30T03:41:44.053Z,7.68
2022-11-30T03:42:05.261Z,7.68
2022-11-30T03:42:26.317Z,7.68
2022-11-30T03:42:47.388Z,7.68
2022-11-30T03:43:08.439Z,7.68
2022-11-30T03:43:29.502Z,7.68
2022-11-30T03:43:50.555Z,7.68
2022-11-30T03:44:11.625Z,7.68
2022-11-30T03:44:32.680Z,7.68
2022-11-30T03:44:53.785Z,7.68
2022-11-30T03:45:14.870Z,7.68
2022-11-30T03:45:35.939Z,7.68
2022-11-30T03:45:57.007Z,7.68
2022-11-30T03:46:18.133Z,7.68
2022-11-30T03:46:39.306Z,7.69
2022-11-30T03:47:00.333Z,7.69
2022-11-30T03:47:21.456Z,7.68
2022-11-30T03:47:42.534Z,7.69
2022-11-30T03:48:03.594Z,7.68
2022-11-30T03:48:24.657Z,7.69
2022-11-30T03:48:45.712Z,7.69
2022-11-30T03:49:06.780Z,7.69
2022-11-30T03:49:27.835Z,7.69
2022-11-30T03:49:48.887Z,7.69
2022-11-30T03:50:09.943Z,7.68
2022-11-30T03:50:30.996Z,7.68
2022-11-30T03:50:52.066Z,7.69
2022-11-30T03:51:13.130Z,7.69
2022-11-30T03:51:34.237Z,7.69
2022-11-30T03:51:55.289Z,7.69
2022-11-30T03:52:16.358Z,7.70
2022-11-30T03:52:37.445Z,7.69
2022-11-30T03:52:58.547Z,7.69
2022-11-30T03:53:19.552Z,7.69
2022-11-30T03:53:40.625Z,7.69
2022-11-30T03:54:01.744Z,7.69
2022-11-30T03:54:22.783Z,7.69
2022-11-30T03:54:43.971Z,7.70
2022-11-30T03:55:05.187Z,7.69
2022-11-30T03:55:26.238Z,7.69
2022-11-30T03:55:47.323Z,7.70
2022-11-30T03:56:08.362Z,7.70
2022-11-30T03:56:29.417Z,7.69
2022-11-30T03:56:50.482Z,7.70
2022-11-30T03:57:11.548Z,7.71
2022-11-30T03:57:32.646Z,7.70
2022-11-30T03:57:53.689Z,7.70
2022-11-30T03:58:14.750Z,7.70
2022-11-30T03:58:35.834Z,7.70
2022-11-30T03:58:56.882Z,7.70
2022-11-30T03:59:17.955Z,7.70
2022-11-30T03:59:39.013Z,7.70
2022-11-30T04:00:00.171Z,7.71
2022-11-30T04:00:21.174Z,7.70
2022-11-30T04:00:42.243Z,7.71
2022-11-30T04:01:03.378Z,7.71
2022-11-30T04:01:24.540Z,7.71
2022-11-30T04:01:45.688Z,7.72
2022-11-30T04:02:06.755Z,7.71
2022-11-30T04:02:27.930Z,7.70
2022-11-30T04:02:49.069Z,7.70
2022-11-30T04:03:10.203Z,7.72
2022-11-30T04:03:31.306Z,7.72
2022-11-30T04:03:52.326Z,7.71
2022-11-30T04:04:13.381Z,7.72
2022-11-30T04:04:34.432Z,7.72
2022-11-30T04:04:55.496Z,7.72
2022-11-30T04:05:16.671Z,7.72
2022-11-30T04:05:37.870Z,7.72
2022-11-30T04:05:58.996Z,7.72
2022-11-30T04:06:20.050Z,7.72
2022-11-30T04:06:41.101Z,7.72
2022-11-30T04:07:02.169Z,7.73
2022-11-30T04:07:23.274Z,7.72
2022-11-30T04:07:44.341Z,7.73
2022-11-30T04:08:05.480Z,7.73
2022-11-30T04:08:26.530Z,7.73
2022-11-30T04:08:47.616Z,7.73
2022-11-30T04:09:08.663Z,7.73
2022-11-30T04:09:29.715Z,7.72
2022-11-30T04:09:50.801Z,7.73
2022-11-30T04:10:11.860Z,7.73
2022-11-30T04:10:32.937Z,7.73
2022-11-30T04:10:53.982Z,7.74
2022-11-30T04:11:15.038Z,7.74
2022-11-30T04:11:36.239Z,7.74
2022-11-30T04:11:57.332Z,7.74
2022-11-30T04:12:18.379Z,7.74
2022-11-30T04:12:39.450Z,7.74
2022-11-30T04:13:00.558Z,7.75
2022-11-30T04:13:21.592Z,7.74
2022-11-30T04:13:42.649Z,7.74
2022-11-30T04:14:03.773Z,7.74
2022-11-30T04:14:24.797Z,7.74
2022-11-30T04:14:46.137Z,7.74
2022-11-30T04:15:07.407Z,7.75
2022-11-30T04:15:28.454Z,7.75
2022-11-30T04:15:49.576Z,7.75
2022-11-30T04:16:10.652Z,7.75
2022-11-30T04:16:31.782Z,7.75
2022-11-30T04:16:52.833Z,7.74
2022-11-30T04:17:13.891Z,7.75
2022-11-30T04:17:34.982Z,7.75
2022-11-30T04:17:56.039Z,7.75
2022-11-30T04:18:17.378Z,7.75
2022-11-30T04:18:38.520Z,7.75
2022-11-30T04:18:59.583Z,7.75
2022-11-30T04:19:20.641Z,7.76
2022-11-30T04:19:41.723Z,7.76
2022-11-30T04:20:02.818Z,7.76
2022-11-30T04:20:23.870Z,7.76
2022-11-30T04:20:44.930Z,7.76
2022-11-30T04:21:06.036Z,7.77
2022-11-30T04:21:27.096Z,7.76
2022-11-30T04:21:48.164Z,7.77
2022-11-30T04:22:09.263Z,7.77
2022-11-30T04:22:30.313Z,7.77
2022-11-30T04:22:51.368Z,7.77
2022-11-30T04:23:12.476Z,7.77
2022-11-30T04:23:33.533Z,7.77
2022-11-30T04:23:54.593Z,7.77
2022-11-30T04:24:15.672Z,7.78
2022-11-30T04:24:36.757Z,7.78
2022-11-30T04:24:57.855Z,7.78
2022-11-30T04:25:18.930Z,7.78
2022-11-30T04:25:39.950Z,7.78
2022-11-30T04:26:01.009Z,7.78
2022-11-30T04:26:22.111Z,7.77
2022-11-30T04:26:43.196Z,7.77
2022-11-30T04:27:04.286Z,7.78
2022-11-30T04:27:25.344Z,7.79
2022-11-30T04:27:46.422Z,7.78
2022-11-30T04:28:07.491Z,7.78
2022-11-30T04:28:28.543Z,7.79
2022-11-30T04:28:49.601Z,7.78
2022-11-30T04:29:10.665Z,7.78
2022-11-30T04:29:31.750Z,7.78
2022-11-30T04:29:52.807Z,7.78
2022-11-30T04:30:13.893Z,7.79
2022-11-30T04:30:34.929Z,7.78
2022-11-30T04:30:56.115Z,7.79
2022-11-30T04:31:17.252Z,7.79
2022-11-30T04:31:38.363Z,7.79
2022-11-30T04:31:59.424Z,7.79
2022-11-30T04:32:20.513Z,7.79
2022-11-30T04:32:41.785Z,7.79
2022-11-30T04:33:02.854Z,7.79
2022-11-30T04:33:23.939Z,7.79
2022-11-30T04:33:45.018Z,7.79
2022-11-30T04:34:06.079Z,7.79
2022-11-30T04:34:27.134Z,7.79
2022-11-30T04:34:48.465Z,7.80
2022-11-30T04:35:09.664Z,7.80
2022-11-30T04:35:30.716Z,7.79
2022-11-30T04:35:51.797Z,7.80
2022-11-30T04:36:12.855Z,7.80
2022-11-30T04:36:33.982Z,7.80
2022-11-30T04:37:00.104Z,7.81
2022-11-30T04:37:22.011Z,7.81
2022-11-30T04:37:43.210Z,7.80
2022-11-30T04:38:04.267Z,7.80
2022-11-30T04:38:25.353Z,7.81
2022-11-30T04:38:46.409Z,7.80
2022-11-30T04:39:07.490Z,7.81
2022-11-30T04:39:28.559Z,7.81
2022-11-30T04:39:49.676Z,7.81
2022-11-30T04:40:10.729Z,7.81
2022-11-30T04:40:31.790Z,7.82
2022-11-30T04:40:52.853Z,7.81